JES3106 SABE-SACO
Flight info
| Callsign | JES3106 |
|---|---|
| Flight time | 1h 22m |
| Altitude | 32000 |
| Route | ATOVO4B ATOVO UW5 ASISA ASISA1Q |
| Aircraft | A320/M-SDE3FGHIRWY/LB1 |
Departure
| Time | 2026-05-03 21:16 |
|---|---|
| Airport | Aeroparque Jorge Newbery (SABE) |
Arrival
| Time | 2026-05-03 22:38 |
|---|---|
| Airport | Ingeniero Aeronáutico Ambrosio L.V. Taravella International Airport (SACO) |
| Time | Latitude | Longitude | Altitude | Speed | Heading |
|---|---|---|---|---|---|
| 2026-05-03 20:18 | -34.55633 | -58.41615 | 27 ft | 0 kts | 27° |
| 2026-05-03 20:48 | -34.55634 | -58.41616 | 27 ft | 1 kts | 27° |
| 2026-05-03 20:48 | -34.55648 | -58.41624 | 27 ft | 2 kts | 27° |
| 2026-05-03 20:48 | -34.55661 | -58.41632 | 27 ft | 2 kts | 27° |
| 2026-05-03 20:48 | -34.55674 | -58.41640 | 27 ft | 2 kts | 27° |
| 2026-05-03 20:49 | -34.55684 | -58.41646 | 27 ft | 0 kts | 27° |
| 2026-05-03 20:49 | -34.55692 | -58.41649 | 27 ft | 1 kts | 325° |
| 2026-05-03 20:49 | -34.55696 | -58.41644 | 27 ft | 1 kts | 288° |
| 2026-05-03 20:49 | -34.55698 | -58.41637 | 27 ft | 0 kts | 298° |
| 2026-05-03 20:53 | -34.55685 | -58.41666 | 27 ft | 3 kts | 299° |
| 2026-05-03 20:54 | -34.55670 | -58.41698 | 27 ft | 5 kts | 303° |
| 2026-05-03 20:54 | -34.55623 | -58.41797 | 27 ft | 8 kts | 298° |
| 2026-05-03 20:54 | -34.55632 | -58.41862 | 27 ft | 9 kts | 217° |
| 2026-05-03 20:55 | -34.55679 | -58.41846 | 27 ft | 9 kts | 123° |
| 2026-05-03 20:55 | -34.55719 | -58.41771 | 27 ft | 12 kts | 121° |
| 2026-05-03 20:55 | -34.55762 | -58.41675 | 27 ft | 13 kts | 117° |
| 2026-05-03 20:55 | -34.55806 | -58.41570 | 27 ft | 14 kts | 116° |
| 2026-05-03 20:56 | -34.55855 | -58.41457 | 27 ft | 15 kts | 120° |
| 2026-05-03 20:56 | -34.55904 | -58.41336 | 27 ft | 16 kts | 118° |
| 2026-05-03 20:56 | -34.55964 | -58.41228 | 27 ft | 14 kts | 126° |
| 2026-05-03 20:56 | -34.56027 | -58.41125 | 27 ft | 15 kts | 126° |
| 2026-05-03 20:57 | -34.56091 | -58.41025 | 27 ft | 12 kts | 127° |
| 2026-05-03 20:57 | -34.56141 | -58.40940 | 27 ft | 11 kts | 126° |
| 2026-05-03 20:57 | -34.56165 | -58.40862 | 27 ft | 8 kts | 84° |
| 2026-05-03 20:57 | -34.56187 | -58.40796 | 27 ft | 9 kts | 122° |
| 2026-05-03 20:58 | -34.56206 | -58.40760 | 27 ft | 0 kts | 123° |
| 2026-05-03 20:58 | -34.56207 | -58.40759 | 27 ft | 0 kts | 124° |
| 2026-05-03 20:58 | -34.56209 | -58.40755 | 27 ft | 0 kts | 123° |
| 2026-05-03 20:59 | -34.56213 | -58.40748 | 27 ft | 1 kts | 124° |
| 2026-05-03 20:59 | -34.56215 | -58.40744 | 27 ft | 0 kts | 124° |
| 2026-05-03 21:00 | -34.56223 | -58.40729 | 27 ft | 4 kts | 123° |
| 2026-05-03 21:00 | -34.56242 | -58.40697 | 27 ft | 3 kts | 124° |
| 2026-05-03 21:01 | -34.56243 | -58.40694 | 27 ft | 0 kts | 124° |
| 2026-05-03 21:03 | -34.56246 | -58.40688 | 27 ft | 2 kts | 123° |
| 2026-05-03 21:03 | -34.56257 | -58.40669 | 27 ft | 3 kts | 123° |
| 2026-05-03 21:03 | -34.56265 | -58.40655 | 27 ft | 0 kts | 124° |
| 2026-05-03 21:05 | -34.56269 | -58.40647 | 27 ft | 3 kts | 123° |
| 2026-05-03 21:05 | -34.56295 | -58.40600 | 27 ft | 8 kts | 125° |
| 2026-05-03 21:06 | -34.56338 | -58.40546 | 27 ft | 9 kts | 138° |
| 2026-05-03 21:06 | -34.56347 | -58.40537 | 27 ft | 0 kts | 138° |
| 2026-05-03 21:07 | -34.56349 | -58.40534 | 27 ft | 1 kts | 137° |
| 2026-05-03 21:07 | -34.56361 | -58.40521 | 27 ft | 0 kts | 137° |
| 2026-05-03 21:10 | -34.56366 | -58.40515 | 27 ft | 2 kts | 137° |
| 2026-05-03 21:11 | -34.56370 | -58.40511 | 27 ft | 1 kts | 137° |
| 2026-05-03 21:11 | -34.56382 | -58.40498 | 27 ft | 3 kts | 137° |
| 2026-05-03 21:11 | -34.56401 | -58.40478 | 27 ft | 0 kts | 138° |
| 2026-05-03 21:14 | -34.56428 | -58.40448 | 27 ft | 9 kts | 138° |
| 2026-05-03 21:14 | -34.56484 | -58.40389 | 27 ft | 11 kts | 142° |
| 2026-05-03 21:14 | -34.56552 | -58.40411 | 27 ft | 11 kts | 225° |
| 2026-05-03 21:14 | -34.56542 | -58.40463 | 27 ft | 0 kts | 303° |
| 2026-05-03 21:15 | -34.56428 | -58.40668 | 27 ft | 66 kts | 303° |
| 2026-05-03 21:15 | -34.56034 | -58.41377 | 27 ft | 133 kts | 304° |
| 2026-05-03 21:16 | -34.55417 | -58.42486 | 305 ft | 165 kts | 305° |
| 2026-05-03 21:16 | -34.54758 | -58.43556 | 1076 ft | 160 kts | 320° |
| 2026-05-03 21:16 | -34.53811 | -58.44202 | 1883 ft | 155 kts | 351° |
| 2026-05-03 21:16 | -34.52753 | -58.43919 | 2318 ft | 167 kts | 27° |
| 2026-05-03 21:17 | -34.51744 | -58.43107 | 2670 ft | 184 kts | 31° |
| 2026-05-03 21:17 | -34.51011 | -58.42479 | 2913 ft | 196 kts | 31° |
| 2026-05-03 21:17 | -34.49404 | -58.41086 | 3348 ft | 226 kts | 31° |
| 2026-05-03 21:17 | -34.48087 | -58.39945 | 3786 ft | 244 kts | 31° |
| 2026-05-03 21:18 | -34.46655 | -58.38708 | 4352 ft | 256 kts | 31° |
| 2026-05-03 21:18 | -34.45179 | -58.37499 | 5094 ft | 259 kts | 23° |
| 2026-05-03 21:18 | -34.43433 | -58.37084 | 5803 ft | 256 kts | 348° |
| 2026-05-03 21:18 | -34.41817 | -58.37916 | 6553 ft | 256 kts | 320° |
| 2026-05-03 21:19 | -34.40668 | -58.39536 | 7281 ft | 259 kts | 298° |
| 2026-05-03 21:19 | -34.39851 | -58.41489 | 8036 ft | 262 kts | 297° |
| 2026-05-03 21:19 | -34.39013 | -58.43457 | 8781 ft | 265 kts | 297° |
| 2026-05-03 21:19 | -34.38147 | -58.45448 | 9492 ft | 268 kts | 297° |
| 2026-05-03 21:20 | -34.37270 | -58.47437 | 10173 ft | 271 kts | 297° |
| 2026-05-03 21:20 | -34.36361 | -58.49479 | 10656 ft | 282 kts | 297° |
| 2026-05-03 21:20 | -34.35405 | -58.51622 | 10944 ft | 298 kts | 296° |
| 2026-05-03 21:20 | -34.34384 | -58.53906 | 11224 ft | 315 kts | 296° |
| 2026-05-03 21:21 | -34.33315 | -58.56289 | 11493 ft | 330 kts | 296° |
| 2026-05-03 21:21 | -34.32189 | -58.58796 | 11750 ft | 345 kts | 296° |
| 2026-05-03 21:21 | -34.31006 | -58.61422 | 12000 ft | 359 kts | 296° |
| 2026-05-03 21:21 | -34.29804 | -58.64085 | 12359 ft | 368 kts | 296° |
| 2026-05-03 21:22 | -34.28545 | -58.66871 | 12895 ft | 372 kts | 296° |
| 2026-05-03 21:22 | -34.27273 | -58.69645 | 13485 ft | 375 kts | 296° |
| 2026-05-03 21:22 | -34.25985 | -58.72420 | 13938 ft | 379 kts | 296° |
| 2026-05-03 21:22 | -34.24638 | -58.75176 | 14509 ft | 383 kts | 300° |
| 2026-05-03 21:23 | -34.23105 | -58.77886 | 15085 ft | 386 kts | 302° |
| 2026-05-03 21:23 | -34.21571 | -58.80533 | 15583 ft | 388 kts | 302° |
| 2026-05-03 21:23 | -34.20020 | -58.83243 | 16101 ft | 390 kts | 301° |
| 2026-05-03 21:23 | -34.18493 | -58.85912 | 16590 ft | 392 kts | 301° |
| 2026-05-03 21:24 | -34.16914 | -58.88626 | 17067 ft | 394 kts | 302° |
| 2026-05-03 21:24 | -34.15335 | -58.91331 | 17531 ft | 396 kts | 302° |
| 2026-05-03 21:24 | -34.13724 | -58.94092 | 18002 ft | 398 kts | 301° |
| 2026-05-03 21:24 | -34.12124 | -58.96840 | 18435 ft | 400 kts | 301° |
| 2026-05-03 21:25 | -34.10533 | -58.99570 | 18866 ft | 402 kts | 301° |
| 2026-05-03 21:25 | -34.08906 | -59.02363 | 19314 ft | 404 kts | 301° |
| 2026-05-03 21:25 | -34.07285 | -59.05145 | 19723 ft | 406 kts | 301° |
| 2026-05-03 21:25 | -34.05651 | -59.07944 | 20100 ft | 409 kts | 301° |
| 2026-05-03 21:26 | -34.04008 | -59.10757 | 20476 ft | 411 kts | 301° |
| 2026-05-03 21:26 | -34.02348 | -59.13596 | 20871 ft | 413 kts | 301° |
| 2026-05-03 21:26 | -34.00691 | -59.16424 | 21263 ft | 414 kts | 301° |
| 2026-05-03 21:26 | -33.99037 | -59.19244 | 21626 ft | 416 kts | 301° |
| 2026-05-03 21:27 | -33.97349 | -59.22121 | 21998 ft | 418 kts | 301° |
| 2026-05-03 21:27 | -33.95674 | -59.24976 | 22463 ft | 417 kts | 301° |
| 2026-05-03 21:27 | -33.94014 | -59.27806 | 22841 ft | 418 kts | 301° |
| 2026-05-03 21:27 | -33.92327 | -59.30676 | 23174 ft | 420 kts | 301° |
| 2026-05-03 21:28 | -33.90648 | -59.33534 | 23490 ft | 422 kts | 301° |
| 2026-05-03 21:28 | -33.88899 | -59.36509 | 23815 ft | 424 kts | 301° |
| 2026-05-03 21:28 | -33.87178 | -59.39432 | 24132 ft | 425 kts | 300° |
| 2026-05-03 21:28 | -33.85482 | -59.42310 | 24431 ft | 427 kts | 300° |
| 2026-05-03 21:29 | -33.83749 | -59.45253 | 24722 ft | 429 kts | 300° |
| 2026-05-03 21:29 | -33.82029 | -59.48169 | 25009 ft | 431 kts | 300° |
| 2026-05-03 21:29 | -33.80287 | -59.51121 | 25283 ft | 433 kts | 300° |
| 2026-05-03 21:29 | -33.78537 | -59.54086 | 25558 ft | 435 kts | 300° |
| 2026-05-03 21:30 | -33.76772 | -59.57074 | 25683 ft | 441 kts | 300° |
| 2026-05-03 21:30 | -33.74998 | -59.60078 | 25815 ft | 445 kts | 300° |
| 2026-05-03 21:30 | -33.73204 | -59.63109 | 26039 ft | 447 kts | 300° |
| 2026-05-03 21:30 | -33.71383 | -59.66178 | 26376 ft | 446 kts | 301° |
| 2026-05-03 21:31 | -33.69579 | -59.69210 | 26756 ft | 444 kts | 301° |
| 2026-05-03 21:31 | -33.67784 | -59.72220 | 27125 ft | 443 kts | 300° |
| 2026-05-03 21:31 | -33.66000 | -59.75212 | 27464 ft | 442 kts | 300° |
| 2026-05-03 21:31 | -33.64219 | -59.78202 | 27794 ft | 441 kts | 300° |
| 2026-05-03 21:32 | -33.62445 | -59.81179 | 28124 ft | 440 kts | 300° |
| 2026-05-03 21:32 | -33.60651 | -59.84187 | 28434 ft | 440 kts | 300° |
| 2026-05-03 21:32 | -33.58881 | -59.87156 | 28763 ft | 439 kts | 300° |
| 2026-05-03 21:32 | -33.57104 | -59.90131 | 29082 ft | 438 kts | 300° |
| 2026-05-03 21:33 | -33.55341 | -59.93085 | 29390 ft | 438 kts | 300° |
| 2026-05-03 21:33 | -33.53578 | -59.96034 | 29696 ft | 437 kts | 300° |
| 2026-05-03 21:33 | -33.51792 | -59.99017 | 29995 ft | 437 kts | 300° |
| 2026-05-03 21:33 | -33.50079 | -60.01879 | 30321 ft | 435 kts | 300° |
| 2026-05-03 21:34 | -33.48409 | -60.04665 | 30647 ft | 434 kts | 299° |
| 2026-05-03 21:34 | -33.46661 | -60.07582 | 30937 ft | 433 kts | 299° |
| 2026-05-03 21:34 | -33.44909 | -60.10501 | 31235 ft | 432 kts | 299° |
| 2026-05-03 21:34 | -33.43156 | -60.13419 | 31529 ft | 431 kts | 299° |
| 2026-05-03 21:35 | -33.41411 | -60.16321 | 31816 ft | 430 kts | 299° |
| 2026-05-03 21:35 | -33.39674 | -60.19208 | 32029 ft | 430 kts | 299° |
| 2026-05-03 21:35 | -33.36190 | -60.24997 | 32042 ft | 429 kts | 299° |
| 2026-05-03 21:36 | -33.32705 | -60.30781 | 32041 ft | 428 kts | 299° |
| 2026-05-03 21:36 | -33.29227 | -60.36538 | 32043 ft | 428 kts | 299° |
| 2026-05-03 21:37 | -33.25747 | -60.42291 | 32044 ft | 429 kts | 299° |
| 2026-05-03 21:37 | -33.22242 | -60.48074 | 32044 ft | 429 kts | 299° |
| 2026-05-03 21:38 | -33.18744 | -60.53837 | 32040 ft | 428 kts | 299° |
| 2026-05-03 21:38 | -33.15271 | -60.59554 | 32041 ft | 429 kts | 299° |
| 2026-05-03 21:39 | -33.11766 | -60.65310 | 32041 ft | 428 kts | 300° |
| 2026-05-03 21:39 | -33.08246 | -60.71087 | 32041 ft | 429 kts | 300° |
| 2026-05-03 21:40 | -33.04733 | -60.76846 | 32040 ft | 429 kts | 300° |
| 2026-05-03 21:40 | -33.01242 | -60.82556 | 32040 ft | 429 kts | 300° |
| 2026-05-03 21:41 | -32.97704 | -60.88329 | 32041 ft | 430 kts | 300° |
| 2026-05-03 21:41 | -32.94196 | -60.94047 | 32039 ft | 430 kts | 300° |
| 2026-05-03 21:42 | -32.90658 | -60.99811 | 32038 ft | 430 kts | 300° |
| 2026-05-03 21:42 | -32.87229 | -61.05396 | 32039 ft | 431 kts | 300° |
| 2026-05-03 21:43 | -32.83681 | -61.11166 | 32036 ft | 430 kts | 300° |
| 2026-05-03 21:43 | -32.80174 | -61.16859 | 32034 ft | 429 kts | 300° |
| 2026-05-03 21:44 | -32.76640 | -61.22590 | 32031 ft | 429 kts | 300° |
| 2026-05-03 21:44 | -32.73128 | -61.28273 | 32032 ft | 429 kts | 300° |
| 2026-05-03 21:45 | -32.69601 | -61.33976 | 32030 ft | 428 kts | 300° |
| 2026-05-03 21:45 | -32.66087 | -61.39648 | 32026 ft | 428 kts | 300° |
| 2026-05-03 21:46 | -32.62574 | -61.45308 | 32023 ft | 428 kts | 300° |
| 2026-05-03 21:46 | -32.59040 | -61.50998 | 32023 ft | 428 kts | 300° |
| 2026-05-03 21:47 | -32.55518 | -61.56659 | 32022 ft | 427 kts | 300° |
| 2026-05-03 21:47 | -32.51981 | -61.62337 | 32020 ft | 429 kts | 300° |
| 2026-05-03 21:48 | -32.48428 | -61.68029 | 32017 ft | 428 kts | 300° |
| 2026-05-03 21:48 | -32.44898 | -61.73679 | 32011 ft | 429 kts | 300° |
| 2026-05-03 21:49 | -32.41352 | -61.79347 | 32013 ft | 429 kts | 300° |
| 2026-05-03 21:49 | -32.37790 | -61.85032 | 32011 ft | 429 kts | 300° |
| 2026-05-03 21:50 | -32.34283 | -61.90725 | 32009 ft | 427 kts | 297° |
| 2026-05-03 21:50 | -32.31175 | -61.96626 | 32008 ft | 425 kts | 295° |
| 2026-05-03 21:51 | -32.28129 | -62.02607 | 32008 ft | 424 kts | 295° |
| 2026-05-03 21:51 | -32.25095 | -62.08559 | 32006 ft | 423 kts | 295° |
| 2026-05-03 21:52 | -32.22072 | -62.14487 | 32004 ft | 423 kts | 295° |
| 2026-05-03 21:52 | -32.19044 | -62.20416 | 32006 ft | 423 kts | 295° |
| 2026-05-03 21:53 | -32.16003 | -62.26360 | 32007 ft | 425 kts | 295° |
| 2026-05-03 21:53 | -32.12944 | -62.32328 | 32007 ft | 424 kts | 295° |
| 2026-05-03 21:54 | -32.09909 | -62.38241 | 32007 ft | 424 kts | 295° |
| 2026-05-03 21:54 | -32.06859 | -62.44173 | 32007 ft | 424 kts | 295° |
| 2026-05-03 21:55 | -32.03797 | -62.50116 | 32005 ft | 423 kts | 295° |
| 2026-05-03 21:55 | -32.00755 | -62.56018 | 32002 ft | 423 kts | 295° |
| 2026-05-03 21:56 | -31.97671 | -62.61949 | 32000 ft | 426 kts | 298° |
| 2026-05-03 21:56 | -31.95723 | -62.64633 | 31998 ft | 437 kts | 310° |
| 2026-05-03 21:56 | -31.93260 | -62.66797 | 31999 ft | 449 kts | 323° |
| 2026-05-03 21:57 | -31.87649 | -62.70035 | 31513 ft | 444 kts | 326° |
| 2026-05-03 21:57 | -31.84918 | -62.71703 | 30426 ft | 452 kts | 326° |
| 2026-05-03 21:57 | -31.82107 | -62.73446 | 29356 ft | 458 kts | 326° |
| 2026-05-03 21:58 | -31.79293 | -62.75192 | 28449 ft | 459 kts | 326° |
| 2026-05-03 21:58 | -31.76469 | -62.76944 | 27509 ft | 462 kts | 326° |
| 2026-05-03 21:58 | -31.73633 | -62.78704 | 26514 ft | 464 kts | 326° |
| 2026-05-03 21:58 | -31.70763 | -62.80483 | 25739 ft | 461 kts | 326° |
| 2026-05-03 21:59 | -31.67907 | -62.82062 | 25147 ft | 459 kts | 333° |
| 2026-05-03 21:59 | -31.64899 | -62.83323 | 24482 ft | 457 kts | 336° |
| 2026-05-03 21:59 | -31.61895 | -62.84483 | 23827 ft | 454 kts | 336° |
| 2026-05-03 21:59 | -31.58886 | -62.85623 | 23205 ft | 450 kts | 336° |
| 2026-05-03 22:00 | -31.55922 | -62.86743 | 22565 ft | 446 kts | 336° |
| 2026-05-03 22:00 | -31.52972 | -62.87857 | 21960 ft | 442 kts | 337° |
| 2026-05-03 22:00 | -31.50099 | -62.88941 | 21402 ft | 437 kts | 337° |
| 2026-05-03 22:00 | -31.47211 | -62.90032 | 20847 ft | 433 kts | 337° |
| 2026-05-03 22:01 | -31.44368 | -62.91105 | 20283 ft | 429 kts | 337° |
| 2026-05-03 22:01 | -31.41541 | -62.92173 | 19734 ft | 425 kts | 338° |
| 2026-05-03 22:01 | -31.38723 | -62.93238 | 19180 ft | 420 kts | 338° |
| 2026-05-03 22:01 | -31.35966 | -62.94279 | 18639 ft | 417 kts | 338° |
| 2026-05-03 22:02 | -31.33210 | -62.95321 | 18084 ft | 413 kts | 338° |
| 2026-05-03 22:02 | -31.30485 | -62.96352 | 17534 ft | 409 kts | 338° |
| 2026-05-03 22:02 | -31.27795 | -62.97369 | 16993 ft | 406 kts | 338° |
| 2026-05-03 22:02 | -31.25110 | -62.98385 | 16450 ft | 403 kts | 339° |
| 2026-05-03 22:03 | -31.22455 | -62.99389 | 15911 ft | 399 kts | 339° |
| 2026-05-03 22:03 | -31.19781 | -63.00196 | 15354 ft | 399 kts | 346° |
| 2026-05-03 22:03 | -31.17045 | -63.00716 | 14829 ft | 396 kts | 348° |
| 2026-05-03 22:03 | -31.14354 | -63.01170 | 14308 ft | 393 kts | 349° |
| 2026-05-03 22:04 | -31.11642 | -63.01617 | 13797 ft | 389 kts | 349° |
| 2026-05-03 22:04 | -31.08964 | -63.02059 | 13288 ft | 385 kts | 349° |
| 2026-05-03 22:04 | -31.06339 | -63.02508 | 12765 ft | 381 kts | 347° |
| 2026-05-03 22:04 | -31.03874 | -63.03510 | 12248 ft | 373 kts | 328° |
| 2026-05-03 22:05 | -31.01886 | -63.05400 | 12007 ft | 367 kts | 309° |
| 2026-05-03 22:05 | -31.00569 | -63.07933 | 11988 ft | 367 kts | 294° |
| 2026-05-03 22:05 | -30.99560 | -63.10652 | 11988 ft | 367 kts | 292° |
| 2026-05-03 22:05 | -30.98592 | -63.13412 | 11987 ft | 367 kts | 291° |
| 2026-05-03 22:06 | -30.97638 | -63.16153 | 11985 ft | 367 kts | 291° |
| 2026-05-03 22:06 | -30.96678 | -63.18912 | 11983 ft | 366 kts | 291° |
| 2026-05-03 22:06 | -30.95722 | -63.21659 | 11982 ft | 367 kts | 291° |
| 2026-05-03 22:06 | -30.94768 | -63.24397 | 11986 ft | 367 kts | 291° |
| 2026-05-03 22:07 | -30.93803 | -63.27163 | 11986 ft | 367 kts | 291° |
| 2026-05-03 22:07 | -30.92841 | -63.29917 | 11988 ft | 367 kts | 291° |
| 2026-05-03 22:07 | -30.91881 | -63.32663 | 11990 ft | 367 kts | 291° |
| 2026-05-03 22:07 | -30.90916 | -63.35421 | 11980 ft | 367 kts | 291° |
| 2026-05-03 22:08 | -30.89960 | -63.38150 | 11974 ft | 367 kts | 291° |
| 2026-05-03 22:08 | -30.88989 | -63.40920 | 11987 ft | 368 kts | 291° |
| 2026-05-03 22:08 | -30.88030 | -63.43652 | 11982 ft | 367 kts | 291° |
| 2026-05-03 22:08 | -30.87239 | -63.46492 | 11969 ft | 366 kts | 278° |
| 2026-05-03 22:09 | -30.87204 | -63.49427 | 11982 ft | 367 kts | 265° |
| 2026-05-03 22:09 | -30.87492 | -63.52365 | 11990 ft | 367 kts | 263° |
| 2026-05-03 22:09 | -30.87830 | -63.55313 | 11986 ft | 367 kts | 262° |
| 2026-05-03 22:10 | -30.88499 | -63.61035 | 14086 ft | 346 kts | 262° |
| 2026-05-03 22:10 | -30.88829 | -63.63863 | 14106 ft | 363 kts | 262° |
| 2026-05-03 22:10 | -30.89165 | -63.66759 | 13499 ft | 367 kts | 262° |
| 2026-05-03 22:10 | -30.89506 | -63.69715 | 13213 ft | 367 kts | 263° |
| 2026-05-03 22:11 | -30.89843 | -63.72646 | 13084 ft | 367 kts | 262° |
| 2026-05-03 22:11 | -30.90179 | -63.75570 | 13038 ft | 367 kts | 262° |
| 2026-05-03 22:11 | -30.90515 | -63.78520 | 13016 ft | 367 kts | 262° |
| 2026-05-03 22:11 | -30.90854 | -63.81495 | 13006 ft | 368 kts | 262° |
| 2026-05-03 22:12 | -30.91184 | -63.84406 | 13003 ft | 368 kts | 262° |
| 2026-05-03 22:12 | -30.91517 | -63.87356 | 13007 ft | 367 kts | 262° |
| 2026-05-03 22:12 | -30.91847 | -63.90297 | 12999 ft | 368 kts | 263° |
| 2026-05-03 22:12 | -30.92180 | -63.93267 | 12997 ft | 368 kts | 262° |
| 2026-05-03 22:13 | -30.92506 | -63.96186 | 12999 ft | 367 kts | 262° |
| 2026-05-03 22:13 | -30.92833 | -63.99129 | 13004 ft | 367 kts | 262° |
| 2026-05-03 22:13 | -30.93162 | -64.02102 | 13011 ft | 366 kts | 262° |
| 2026-05-03 22:13 | -30.93487 | -64.05046 | 13010 ft | 367 kts | 262° |
| 2026-05-03 22:14 | -30.93808 | -64.07967 | 13001 ft | 367 kts | 262° |
| 2026-05-03 22:14 | -30.94130 | -64.10908 | 12996 ft | 367 kts | 262° |
| 2026-05-03 22:14 | -30.94452 | -64.13866 | 12992 ft | 367 kts | 262° |
| 2026-05-03 22:14 | -30.94768 | -64.16782 | 12996 ft | 367 kts | 262° |
| 2026-05-03 22:15 | -30.95090 | -64.19754 | 12996 ft | 367 kts | 263° |
| 2026-05-03 22:15 | -30.95408 | -64.22707 | 12992 ft | 367 kts | 263° |
| 2026-05-03 22:15 | -30.95723 | -64.25645 | 12987 ft | 366 kts | 262° |
| 2026-05-03 22:15 | -30.96035 | -64.28559 | 12988 ft | 366 kts | 263° |
| 2026-05-03 22:16 | -30.96349 | -64.31509 | 12991 ft | 366 kts | 263° |
| 2026-05-03 22:16 | -30.96660 | -64.34448 | 12997 ft | 366 kts | 263° |
| 2026-05-03 22:16 | -30.96970 | -64.37379 | 12993 ft | 366 kts | 263° |
| 2026-05-03 22:16 | -30.97277 | -64.40301 | 13005 ft | 366 kts | 263° |
| 2026-05-03 22:17 | -30.97589 | -64.43279 | 13003 ft | 367 kts | 263° |
| 2026-05-03 22:17 | -30.97894 | -64.46204 | 12998 ft | 367 kts | 263° |
| 2026-05-03 22:17 | -30.98201 | -64.49162 | 13001 ft | 367 kts | 263° |
| 2026-05-03 22:17 | -30.98505 | -64.52100 | 13003 ft | 366 kts | 263° |
| 2026-05-03 22:18 | -30.98805 | -64.55016 | 13005 ft | 366 kts | 263° |
| 2026-05-03 22:18 | -30.99111 | -64.57993 | 13011 ft | 367 kts | 263° |
| 2026-05-03 22:18 | -30.99408 | -64.60909 | 13008 ft | 366 kts | 263° |
| 2026-05-03 22:18 | -30.99851 | -64.63841 | 12996 ft | 367 kts | 252° |
| 2026-05-03 22:19 | -31.01014 | -64.66481 | 12993 ft | 369 kts | 234° |
| 2026-05-03 22:19 | -31.02876 | -64.68547 | 12998 ft | 373 kts | 216° |
| 2026-05-03 22:19 | -31.05230 | -64.69810 | 13009 ft | 379 kts | 198° |
| 2026-05-03 22:19 | -31.07874 | -64.70192 | 13018 ft | 384 kts | 185° |
| 2026-05-03 22:20 | -31.10550 | -64.70181 | 13027 ft | 385 kts | 182° |
| 2026-05-03 22:20 | -31.13237 | -64.70106 | 13033 ft | 385 kts | 182° |
| 2026-05-03 22:20 | -31.15924 | -64.70023 | 13037 ft | 385 kts | 182° |
| 2026-05-03 22:20 | -31.18615 | -64.69938 | 13046 ft | 385 kts | 182° |
| 2026-05-03 22:21 | -31.21284 | -64.69854 | 13057 ft | 385 kts | 182° |
| 2026-05-03 22:21 | -31.23962 | -64.69771 | 13066 ft | 385 kts | 182° |
| 2026-05-03 22:21 | -31.26632 | -64.69688 | 13070 ft | 385 kts | 182° |
| 2026-05-03 22:21 | -31.29319 | -64.69606 | 13070 ft | 385 kts | 182° |
| 2026-05-03 22:22 | -31.32015 | -64.69524 | 13068 ft | 385 kts | 182° |
| 2026-05-03 22:22 | -31.34706 | -64.69444 | 13067 ft | 385 kts | 182° |
| 2026-05-03 22:22 | -31.37362 | -64.69366 | 13067 ft | 385 kts | 182° |
| 2026-05-03 22:22 | -31.40066 | -64.69286 | 13068 ft | 385 kts | 182° |
| 2026-05-03 22:23 | -31.42746 | -64.69209 | 13070 ft | 386 kts | 182° |
| 2026-05-03 22:23 | -31.45430 | -64.69132 | 13067 ft | 386 kts | 182° |
| 2026-05-03 22:23 | -31.48137 | -64.69055 | 13064 ft | 386 kts | 182° |
| 2026-05-03 22:23 | -31.50860 | -64.68900 | 13054 ft | 389 kts | 175° |
| 2026-05-03 22:24 | -31.53455 | -64.67980 | 13044 ft | 395 kts | 158° |
| 2026-05-03 22:24 | -31.55724 | -64.66181 | 12763 ft | 396 kts | 140° |
| 2026-05-03 22:24 | -31.57522 | -64.63705 | 12153 ft | 399 kts | 128° |
| 2026-05-03 22:24 | -31.59094 | -64.61062 | 11588 ft | 398 kts | 126° |
| 2026-05-03 22:25 | -31.60644 | -64.58360 | 11063 ft | 395 kts | 125° |
| 2026-05-03 22:25 | -31.62150 | -64.55713 | 10568 ft | 392 kts | 125° |
| 2026-05-03 22:25 | -31.63644 | -64.53083 | 10323 ft | 380 kts | 125° |
| 2026-05-03 22:25 | -31.65077 | -64.50555 | 10111 ft | 369 kts | 125° |
| 2026-05-03 22:26 | -31.66468 | -64.48103 | 9999 ft | 355 kts | 124° |
| 2026-05-03 22:26 | -31.67811 | -64.45731 | 9988 ft | 339 kts | 124° |
| 2026-05-03 22:26 | -31.68946 | -64.43371 | 9972 ft | 324 kts | 110° |
| 2026-05-03 22:26 | -31.69388 | -64.40852 | 9856 ft | 314 kts | 96° |
| 2026-05-03 22:27 | -31.69576 | -64.38317 | 9612 ft | 310 kts | 93° |
| 2026-05-03 22:27 | -31.69717 | -64.35795 | 9307 ft | 308 kts | 92° |
| 2026-05-03 22:27 | -31.69752 | -64.33318 | 8988 ft | 304 kts | 79° |
| 2026-05-03 22:27 | -31.69135 | -64.30989 | 8706 ft | 297 kts | 63° |
| 2026-05-03 22:28 | -31.68268 | -64.28828 | 8432 ft | 293 kts | 61° |
| 2026-05-03 22:28 | -31.67325 | -64.26711 | 8165 ft | 288 kts | 52° |
| 2026-05-03 22:28 | -31.65959 | -64.25060 | 8031 ft | 282 kts | 34° |
| 2026-05-03 22:28 | -31.64358 | -64.23689 | 7880 ft | 281 kts | 32° |
| 2026-05-03 22:29 | -31.62785 | -64.22377 | 7720 ft | 280 kts | 32° |
| 2026-05-03 22:29 | -31.61210 | -64.21019 | 7517 ft | 278 kts | 33° |
| 2026-05-03 22:29 | -31.59679 | -64.19658 | 7255 ft | 277 kts | 34° |
| 2026-05-03 22:29 | -31.58145 | -64.18266 | 7021 ft | 273 kts | 34° |
| 2026-05-03 22:30 | -31.56674 | -64.16913 | 6968 ft | 262 kts | 34° |
| 2026-05-03 22:30 | -31.55253 | -64.15601 | 6751 ft | 258 kts | 34° |
| 2026-05-03 22:30 | -31.53869 | -64.14322 | 6517 ft | 254 kts | 34° |
| 2026-05-03 22:30 | -31.52492 | -64.13049 | 6280 ft | 250 kts | 34° |
| 2026-05-03 22:31 | -31.51123 | -64.11784 | 6045 ft | 246 kts | 34° |
| 2026-05-03 22:31 | -31.49799 | -64.10555 | 5820 ft | 242 kts | 35° |
| 2026-05-03 22:31 | -31.48492 | -64.09330 | 5509 ft | 242 kts | 35° |
| 2026-05-03 22:31 | -31.47162 | -64.08089 | 5125 ft | 244 kts | 35° |
| 2026-05-03 22:32 | -31.45866 | -64.06885 | 4984 ft | 229 kts | 35° |
| 2026-05-03 22:32 | -31.44593 | -64.05759 | 4979 ft | 225 kts | 26° |
| 2026-05-03 22:32 | -31.43163 | -64.05331 | 4956 ft | 208 kts | 353° |
| 2026-05-03 22:32 | -31.41852 | -64.05938 | 4962 ft | 200 kts | 320° |
| 2026-05-03 22:33 | -31.41164 | -64.07265 | 4944 ft | 192 kts | 284° |
| 2026-05-03 22:33 | -31.41214 | -64.08843 | 5075 ft | 198 kts | 266° |
| 2026-05-03 22:33 | -31.41737 | -64.10372 | 5041 ft | 208 kts | 244° |
| 2026-05-03 22:33 | -31.42552 | -64.11721 | 4994 ft | 196 kts | 239° |
| 2026-05-03 22:34 | -31.43360 | -64.12949 | 4828 ft | 188 kts | 238° |
| 2026-05-03 22:34 | -31.44168 | -64.14152 | 4585 ft | 185 kts | 238° |
| 2026-05-03 22:34 | -31.44837 | -64.15414 | 4286 ft | 177 kts | 261° |
| 2026-05-03 22:34 | -31.44778 | -64.16727 | 4016 ft | 157 kts | 306° |
| 2026-05-03 22:35 | -31.44028 | -64.17571 | 3944 ft | 146 kts | 339° |
| 2026-05-03 22:35 | -31.43097 | -64.18004 | 3771 ft | 145 kts | 342° |
| 2026-05-03 22:35 | -31.42150 | -64.18448 | 3571 ft | 145 kts | 342° |
| 2026-05-03 22:35 | -31.41220 | -64.18887 | 3377 ft | 144 kts | 342° |
| 2026-05-03 22:36 | -31.40285 | -64.19331 | 3179 ft | 143 kts | 343° |
| 2026-05-03 22:36 | -31.39373 | -64.19762 | 2990 ft | 143 kts | 342° |
| 2026-05-03 22:36 | -31.38445 | -64.20202 | 2800 ft | 143 kts | 342° |
| 2026-05-03 22:36 | -31.37513 | -64.20615 | 2602 ft | 142 kts | 348° |
| 2026-05-03 22:37 | -31.36545 | -64.20753 | 2376 ft | 141 kts | 1° |
| 2026-05-03 22:37 | -31.35564 | -64.20759 | 2220 ft | 141 kts | 0° |
| 2026-05-03 22:37 | -31.34570 | -64.20772 | 2059 ft | 141 kts | 1° |
| 2026-05-03 22:37 | -31.33591 | -64.20789 | 1882 ft | 141 kts | 1° |
| 2026-05-03 22:38 | -31.32602 | -64.20806 | 1705 ft | 142 kts | 0° |
| 2026-05-03 22:38 | -31.31639 | -64.20824 | 1615 ft | 130 kts | 1° |
| 2026-05-03 22:38 | -31.30962 | -64.20834 | 1613 ft | 54 kts | 359° |
| 2026-05-03 22:38 | -31.30740 | -64.20828 | 1613 ft | 12 kts | 15° |
| 2026-05-03 22:39 | -31.30745 | -64.20840 | 1613 ft | 7 kts | 174° |
| 2026-05-03 22:39 | -31.30900 | -64.20836 | 1613 ft | 34 kts | 179° |
| 2026-05-03 22:39 | -31.31198 | -64.20831 | 1613 ft | 47 kts | 178° |
| 2026-05-03 22:39 | -31.31442 | -64.20874 | 1613 ft | 21 kts | 224° |
| 2026-05-03 22:40 | -31.31465 | -64.20953 | 1613 ft | 3 kts | 268° |
| 2026-05-03 22:40 | -31.31465 | -64.20954 | 1613 ft | 0 kts | 268° |
| 2026-05-03 22:40 | -31.31465 | -64.20960 | 1613 ft | 1 kts | 268° |
| 2026-05-03 22:40 | -31.31465 | -64.20975 | 1613 ft | 2 kts | 268° |
| 2026-05-03 22:41 | -31.31466 | -64.20995 | 1613 ft | 2 kts | 268° |
| 2026-05-03 22:41 | -31.31471 | -64.21022 | 1613 ft | 3 kts | 245° |
| 2026-05-03 22:41 | -31.31488 | -64.21047 | 1613 ft | 4 kts | 225° |
| 2026-05-03 22:41 | -31.31512 | -64.21071 | 1613 ft | 4 kts | 206° |
| 2026-05-03 22:42 | -31.31546 | -64.21081 | 1613 ft | 4 kts | 197° |
| 2026-05-03 22:42 | -31.31566 | -64.21117 | 1613 ft | 5 kts | 248° |
| 2026-05-03 22:42 | -31.31581 | -64.21162 | 1613 ft | 5 kts | 250° |
| 2026-05-03 22:42 | -31.31583 | -64.21167 | 1613 ft | 0 kts | 250° |